Hartford, Connecticut
Traffic Map
Current Weather Conditions
Hartford, Connecticut
Broken Clouds
Broken Clouds
77°
Feels Like: 79°
Wind Chill: 77° Ceiling: 1900
Heat Index: 79° Visibility: 10mi
Dew Point: 70° Wind: 13mph
Humidity: 79% Direction: 190° (S)
Pressure: 29.89in Gusts: 22mph
Raw Report DataKHFD 181353Z 19011G19KT 160V230 10SM BKN019 BKN025 25/21 A2989 RMK AO2 SLP120 T02500211
Traffic Incident Summary
Active as of:
Severity:
Category:
InformationThere was an issue retrieving the traffic information for this location. Please try a different location or try again shortly.
Advertisements